Flight Track Log - Related Links

Times and Time Zones

All times are in EDT time to prevent confusion due to time zone crossing. See the EJA312 flight status page for this flight to view local times or setup timezone preferences in your user account.

Time Position Orientation Groundspeed Altitude Reporting Facility
EDT Latitude Longitude Course Direction KTS MPH feet Rate Location/Type
Sun 05:01:18 PM 41.7767 -87.7917 188° South 192 221 2,900  Level Chicago Center
Sun 05:02:20 PM 41.7061 -87.8050 188° South 239 275 5,500 3,387 Climbing Chicago Center
Sun 05:03:22 PM 41.6336 -87.7794 165° South 263 303 9,900 3,194 Climbing Chicago Center
Sun 05:04:24 PM 41.5517 -87.7597 170° South 293 337 12,100 2,592 Climbing Chicago Center
Sun 05:05:27 PM 41.4647 -87.7364 169° South 312 359 15,300 2,880 Climbing Chicago Center
Sun 05:06:29 PM 41.3744 -87.7242 174° South 326 375 18,100 2,903 Climbing Chicago Center
Sun 05:07:31 PM 41.2867 -87.7253 181° South 315 362 21,300 2,758 Climbing Chicago Center
Sun 05:08:33 PM 41.2019 -87.7264 181° South 307 353 23,800 1,790 Climbing Chicago Center
Sun 05:09:35 PM 41.0936 -87.7061 172° South 327 376 25,000 581 Climbing Chicago Center
Sun 05:10:37 PM 40.9844 -87.6856 172° South 386 444 25,000  Level Chicago Center
Sun 05:11:39 PM 40.8661 -87.6622 172° South 422 486 25,000  Level Chicago Center
Sun 05:12:41 PM 40.7442 -87.6394 172° South 441 507 25,000  Level Chicago Center
Sun 05:13:43 PM 40.6211 -87.6156 172° South 447 514 25,000  Level Chicago Center
Sun 05:14:45 PM 40.4778 -87.5903 172° South 436 502 25,000  Level Chicago Center
Sun 05:15:48 PM 40.3628 -87.5692 172° South 423 487 25,000  Level Chicago Center
Sun 05:17:02 PM 40.2258 -87.5272 167° South 426 490 25,000  Level Chicago Center
Sun 05:18:04 PM 40.1206 -87.4861 163° South 425 489 25,000  Level Chicago Center
Sun 05:18:46 PM 40.0258 -87.4528 165° South 426 490 25,000  Level Indianapolis Center
Sun 05:19:48 PM 39.9133 -87.4103 164° South 425 489 25,000  Level Indianapolis Center
Sun 05:20:50 PM 39.8008 -87.3661 163° South 425 489 25,000 -97 Level Indianapolis Center
Sun 05:21:52 PM 39.6650 -87.3150 164° South 426 490 24,800 -532 Descending Indianapolis Center
Sun 05:22:54 PM 39.5492 -87.2711 164° South 435 501 23,900 -871 Descending Indianapolis Center
Sun 05:23:56 PM 39.4308 -87.2244 163° South 443 510 23,000 -435 Descending Indianapolis Center
Sun 05:24:58 PM 39.3183 -87.1747 161° South 435 501 23,000  Level Indianapolis Center
Sun 05:26:00 PM 39.2097 -87.1272 161° South 419 482 23,000  Level Indianapolis Center
Sun 05:27:03 PM 39.1164 -87.0083 135° Southeast 418 481 23,000 -144 Level Indianapolis Center
Sun 05:28:05 PM 39.0472 -86.8869 126° Southeast 418 481 22,700 -1,403 Descending Indianapolis Center
Sun 05:29:07 PM 38.9744 -86.7606 127° Southeast 425 489 20,100 -2,371 Descending Indianapolis Center
Sun 05:30:09 PM 38.9031 -86.6328 126° Southeast 434 499 17,800 -2,323 Descending Indianapolis Center
Sun 05:31:11 PM 38.8350 -86.5136 126° Southeast 420 483 15,300 -2,371 Descending Indianapolis Center
Sun 05:32:13 PM 38.7689 -86.3986 126° Southeast 404 465 12,900 -2,129 Descending Indianapolis Center
Sun 05:33:15 PM 38.6831 -86.3175 144° Southeast 386 444 10,900 -1,887 Descending Indianapolis Center
Sun 05:34:17 PM 38.5969 -86.2394 145° Southeast 324 373 9,000 -1,645 Descending Indianapolis Center
Sun 05:35:19 PM 38.5308 -86.1781 144° Southeast 296 341 7,500 -1,403 Descending Indianapolis Center
Sun 05:36:21 PM 38.4622 -86.1172 145° Southeast 297 342 6,100 -726 Descending Indianapolis Center
Sun 05:37:23 PM 38.3961 -86.0600 146° Southeast 290 334 6,000 -48 Descending Indianapolis Center
Sun 05:38:25 PM 38.3311 -86.0017 145° Southeast 286 329 6,000  Level Indianapolis Center
Sun 05:39:27 PM 38.2664 -85.9450 145° Southeast 282 325 6,000  Level Indianapolis Center
Sun 05:40:29 PM 38.1997 -85.8861 145° Southeast 286 329 6,000 -677 Level Indianapolis Center
Sun 05:41:31 PM 38.1344 -85.8325 147° Southeast 284 327 4,600 -1,500 Descending Indianapolis Center
Sun 05:42:33 PM 38.0864 -85.7789 139° Southeast 226 260 2,900 -1,016 Descending Indianapolis Center
Sun 05:43:35 PM 38.1042 -85.7244 67° East 209 241 2,500 -759 Descending Indianapolis Center
Sun 05:45:19 PM 38.1500 -85.7167 North 116 133 800 -981 Descending Louisville TRACON

Login

Don't have an account? Register now (free) for customized features, flight alerts, and more!